sensor_id;sensor_type;location;lat;lon;timestamp;pressure;altitude;pressure_sealevel;temperature
74060;BMP280;62414;53.436;8.828;2022-07-29T00:02:23;101982.66;;;13.61
74060;BMP280;62414;53.436;8.828;2022-07-29T00:04:48;101982.28;;;13.59
74060;BMP280;62414;53.436;8.828;2022-07-29T00:07:14;101980.28;;;13.63
74060;BMP280;62414;53.436;8.828;2022-07-29T00:09:41;101980.31;;;13.60
74060;BMP280;62414;53.436;8.828;2022-07-29T00:12:06;101979.16;;;13.61
74060;BMP280;62414;53.436;8.828;2022-07-29T00:14:32;101975.25;;;13.62
74060;BMP280;62414;53.436;8.828;2022-07-29T00:16:57;101971.50;;;13.56
74060;BMP280;62414;53.436;8.828;2022-07-29T00:19:23;101978.78;;;13.59
74060;BMP280;62414;53.436;8.828;2022-07-29T00:21:48;101974.13;;;13.59
74060;BMP280;62414;53.436;8.828;2022-07-29T00:24:13;101965.19;;;13.59
74060;BMP280;62414;53.436;8.828;2022-07-29T00:26:40;101958.97;;;13.58
74060;BMP280;62414;53.436;8.828;2022-07-29T00:29:06;101955.94;;;13.56
74060;BMP280;62414;53.436;8.828;2022-07-29T00:31:31;101950.06;;;13.58
74060;BMP280;62414;53.436;8.828;2022-07-29T00:33:56;101948.19;;;13.55
74060;BMP280;62414;53.436;8.828;2022-07-29T00:36:22;101958.38;;;13.51
74060;BMP280;62414;53.436;8.828;2022-07-29T00:38:48;101947.84;;;13.53
74060;BMP280;62414;53.436;8.828;2022-07-29T00:41:14;101944.09;;;13.47
74060;BMP280;62414;53.436;8.828;2022-07-29T00:43:41;101944.09;;;13.47
74060;BMP280;62414;53.436;8.828;2022-07-29T00:46:06;101946.38;;;13.48
74060;BMP280;62414;53.436;8.828;2022-07-29T00:48:32;101949.59;;;13.43
74060;BMP280;62414;53.436;8.828;2022-07-29T00:50:58;101946.88;;;13.43
74060;BMP280;62414;53.436;8.828;2022-07-29T00:53:25;101943.78;;;13.41
74060;BMP280;62414;53.436;8.828;2022-07-29T00:55:50;101936.00;;;13.43
74060;BMP280;62414;53.436;8.828;2022-07-29T00:58:16;101930.56;;;13.43
74060;BMP280;62414;53.436;8.828;2022-07-29T01:00:43;101934.47;;;13.42
74060;BMP280;62414;53.436;8.828;2022-07-29T01:03:08;101937.97;;;13.43
74060;BMP280;62414;53.436;8.828;2022-07-29T01:05:34;101924.75;;;13.41
74060;BMP280;62414;53.436;8.828;2022-07-29T01:08:00;101929.03;;;13.42
74060;BMP280;62414;53.436;8.828;2022-07-29T01:10:27;101929.44;;;13.41
74060;BMP280;62414;53.436;8.828;2022-07-29T01:12:55;101925.53;;;13.42
74060;BMP280;62414;53.436;8.828;2022-07-29T01:15:22;101927.84;;;13.43
74060;BMP280;62414;53.436;8.828;2022-07-29T01:17:54;101918.16;;;13.42
74060;BMP280;62414;53.436;8.828;2022-07-29T01:20:26;101915.00;;;13.44
74060;BMP280;62414;53.436;8.828;2022-07-29T01:23:15;101911.16;;;13.41
74060;BMP280;62414;53.436;8.828;2022-07-29T01:26:09;101906.09;;;13.43
74060;BMP280;62414;53.436;8.828;2022-07-29T01:28:56;101908.81;;;13.43
74060;BMP280;62414;53.436;8.828;2022-07-29T01:31:28;101906.63;;;13.34
74060;BMP280;62414;53.436;8.828;2022-07-29T01:33:58;101906.50;;;13.42
74060;BMP280;62414;53.436;8.828;2022-07-29T01:36:30;101903.94;;;13.34
74060;BMP280;62414;53.436;8.828;2022-07-29T01:38:59;101900.00;;;13.35
74060;BMP280;62414;53.436;8.828;2022-07-29T01:41:28;101897.72;;;13.34
74060;BMP280;62414;53.436;8.828;2022-07-29T01:44:01;101892.03;;;13.28
74060;BMP280;62414;53.436;8.828;2022-07-29T01:46:31;101886.59;;;13.28
74060;BMP280;62414;53.436;8.828;2022-07-29T01:49:02;101888.44;;;13.31
74060;BMP280;62414;53.436;8.828;2022-07-29T01:51:33;101889.31;;;13.28
74060;BMP280;62414;53.436;8.828;2022-07-29T01:54:04;101888.03;;;13.33
74060;BMP280;62414;53.436;8.828;2022-07-29T01:56:32;101883.81;;;13.32
74060;BMP280;62414;53.436;8.828;2022-07-29T01:59:01;101881.81;;;13.32
74060;BMP280;62414;53.436;8.828;2022-07-29T02:01:30;101879.94;;;13.29
74060;BMP280;62414;53.436;8.828;2022-07-29T02:03:57;101874.44;;;13.33
74060;BMP280;62414;53.436;8.828;2022-07-29T02:06:23;101878.69;;;13.34
74060;BMP280;62414;53.436;8.828;2022-07-29T02:08:50;101870.78;;;13.23
74060;BMP280;62414;53.436;8.828;2022-07-29T02:11:16;101867.38;;;13.19
74060;BMP280;62414;53.436;8.828;2022-07-29T02:13:43;101858.91;;;13.14
74060;BMP280;62414;53.436;8.828;2022-07-29T02:16:11;101857.38;;;13.13
74060;BMP280;62414;53.436;8.828;2022-07-29T02:18:39;101859.06;;;13.06
74060;BMP280;62414;53.436;8.828;2022-07-29T02:21:06;101859.13;;;13.03
74060;BMP280;62414;53.436;8.828;2022-07-29T02:23:35;101847.91;;;13.01
74060;BMP280;62414;53.436;8.828;2022-07-29T02:26:01;101846.88;;;12.95
74060;BMP280;62414;53.436;8.828;2022-07-29T02:28:29;101840.34;;;12.92
74060;BMP280;62414;53.436;8.828;2022-07-29T02:30:58;101840.56;;;12.82
74060;BMP280;62414;53.436;8.828;2022-07-29T02:33:26;101841.31;;;12.82
74060;BMP280;62414;53.436;8.828;2022-07-29T02:35:53;101836.66;;;12.83
74060;BMP280;62414;53.436;8.828;2022-07-29T02:38:21;101835.13;;;12.82
74060;BMP280;62414;53.436;8.828;2022-07-29T02:40:48;101836.31;;;12.81
74060;BMP280;62414;53.436;8.828;2022-07-29T02:43:17;101837.34;;;12.87
74060;BMP280;62414;53.436;8.828;2022-07-29T02:45:43;101817.06;;;12.91
74060;BMP280;62414;53.436;8.828;2022-07-29T02:48:13;101824.47;;;12.91
74060;BMP280;62414;53.436;8.828;2022-07-29T02:50:44;101825.50;;;12.97
74060;BMP280;62414;53.436;8.828;2022-07-29T02:53:16;101826.59;;;12.99
74060;BMP280;62414;53.436;8.828;2022-07-29T02:55:44;101822.44;;;12.95
74060;BMP280;62414;53.436;8.828;2022-07-29T02:58:15;101834.41;;;12.97
74060;BMP280;62414;53.436;8.828;2022-07-29T03:00:46;101833.31;;;12.95
74060;BMP280;62414;53.436;8.828;2022-07-29T03:03:15;101832.44;;;12.98
74060;BMP280;62414;53.436;8.828;2022-07-29T03:05:42;101823.44;;;13.01
74060;BMP280;62414;53.436;8.828;2022-07-29T03:08:09;101823.41;;;13.04
74060;BMP280;62414;53.436;8.828;2022-07-29T03:10:37;101828.13;;;13.00
74060;BMP280;62414;53.436;8.828;2022-07-29T03:13:04;101826.50;;;13.03
74060;BMP280;62414;53.436;8.828;2022-07-29T03:15:30;101828.06;;;13.04
74060;BMP280;62414;53.436;8.828;2022-07-29T03:17:56;101822.88;;;13.10
74060;BMP280;62414;53.436;8.828;2022-07-29T03:20:22;101823.22;;;13.12
74060;BMP280;62414;53.436;8.828;2022-07-29T03:22:49;101828.72;;;13.08
74060;BMP280;62414;53.436;8.828;2022-07-29T03:25:16;101834.88;;;13.12
74060;BMP280;62414;53.436;8.828;2022-07-29T03:27:43;101835.22;;;13.14
74060;BMP280;62414;53.436;8.828;2022-07-29T03:30:10;101820.09;;;13.13
74060;BMP280;62414;53.436;8.828;2022-07-29T03:32:36;101821.38;;;13.09
74060;BMP280;62414;53.436;8.828;2022-07-29T03:35:02;101824.28;;;13.18
74060;BMP280;62414;53.436;8.828;2022-07-29T03:37:28;101825.31;;;13.24
74060;BMP280;62414;53.436;8.828;2022-07-29T03:39:56;101825.63;;;13.26
74060;BMP280;62414;53.436;8.828;2022-07-29T03:42:25;101826.75;;;13.28
74060;BMP280;62414;53.436;8.828;2022-07-29T03:44:52;101830.91;;;13.33
74060;BMP280;62414;53.436;8.828;2022-07-29T03:47:24;101827.09;;;13.30
74060;BMP280;62414;53.436;8.828;2022-07-29T03:49:52;101831.69;;;13.33
74060;BMP280;62414;53.436;8.828;2022-07-29T03:52:18;101831.25;;;13.35
74060;BMP280;62414;53.436;8.828;2022-07-29T03:54:43;101828.53;;;13.35
74060;BMP280;62414;53.436;8.828;2022-07-29T03:57:11;101832.38;;;13.38
74060;BMP280;62414;53.436;8.828;2022-07-29T03:59:38;101832.59;;;13.27
74060;BMP280;62414;53.436;8.828;2022-07-29T04:02:05;101829.97;;;13.40
74060;BMP280;62414;53.436;8.828;2022-07-29T04:04:33;101835.34;;;13.43
74060;BMP280;62414;53.436;8.828;2022-07-29T04:06:59;101834.03;;;13.51
74060;BMP280;62414;53.436;8.828;2022-07-29T04:09:24;101831.19;;;13.55
74060;BMP280;62414;53.436;8.828;2022-07-29T04:11:49;101834.50;;;13.62
74060;BMP280;62414;53.436;8.828;2022-07-29T04:14:16;101838.31;;;13.65
74060;BMP280;62414;53.436;8.828;2022-07-29T04:16:42;101835.94;;;13.67
74060;BMP280;62414;53.436;8.828;2022-07-29T04:19:07;101835.28;;;13.63
74060;BMP280;62414;53.436;8.828;2022-07-29T04:21:36;101838.00;;;13.63
74060;BMP280;62414;53.436;8.828;2022-07-29T04:24:02;101835.13;;;13.70
74060;BMP280;62414;53.436;8.828;2022-07-29T04:26:27;101832.88;;;13.81
74060;BMP280;62414;53.436;8.828;2022-07-29T04:28:53;101830.44;;;13.71
74060;BMP280;62414;53.436;8.828;2022-07-29T04:31:20;101818.75;;;13.86
74060;BMP280;62414;53.436;8.828;2022-07-29T04:33:45;101830.78;;;13.89
74060;BMP280;62414;53.436;8.828;2022-07-29T04:36:10;101832.53;;;13.95
74060;BMP280;62414;53.436;8.828;2022-07-29T04:38:36;101840.50;;;14.03
74060;BMP280;62414;53.436;8.828;2022-07-29T04:41:02;101841.72;;;14.02
74060;BMP280;62414;53.436;8.828;2022-07-29T04:43:27;101829.59;;;14.03
74060;BMP280;62414;53.436;8.828;2022-07-29T04:45:53;101833.63;;;14.14
74060;BMP280;62414;53.436;8.828;2022-07-29T04:48:19;101837.41;;;14.17
74060;BMP280;62414;53.436;8.828;2022-07-29T04:50:45;101845.06;;;14.22
74060;BMP280;62414;53.436;8.828;2022-07-29T04:53:10;101848.31;;;14.17
74060;BMP280;62414;53.436;8.828;2022-07-29T04:55:36;101836.03;;;14.25
74060;BMP280;62414;53.436;8.828;2022-07-29T04:58:01;101835.19;;;14.28
74060;BMP280;62414;53.436;8.828;2022-07-29T05:00:27;101834.09;;;14.25
74060;BMP280;62414;53.436;8.828;2022-07-29T05:02:53;101828.97;;;14.27
74060;BMP280;62414;53.436;8.828;2022-07-29T05:05:19;101840.03;;;14.37
74060;BMP280;62414;53.436;8.828;2022-07-29T05:07:45;101830.88;;;14.43
74060;BMP280;62414;53.436;8.828;2022-07-29T05:10:10;101827.94;;;14.38
74060;BMP280;62414;53.436;8.828;2022-07-29T05:12:36;101831.97;;;14.46
74060;BMP280;62414;53.436;8.828;2022-07-29T05:15:01;101836.41;;;14.40
74060;BMP280;62414;53.436;8.828;2022-07-29T05:17:27;101843.03;;;14.68
74060;BMP280;62414;53.436;8.828;2022-07-29T05:19:52;101825.25;;;14.63
74060;BMP280;62414;53.436;8.828;2022-07-29T05:22:19;101818.31;;;14.75
74060;BMP280;62414;53.436;8.828;2022-07-29T05:24:45;101819.75;;;14.79
74060;BMP280;62414;53.436;8.828;2022-07-29T05:27:10;101821.72;;;14.79
74060;BMP280;62414;53.436;8.828;2022-07-29T05:29:36;101817.97;;;14.73
74060;BMP280;62414;53.436;8.828;2022-07-29T05:32:02;101819.75;;;14.92
74060;BMP280;62414;53.436;8.828;2022-07-29T05:34:27;101812.66;;;14.95
74060;BMP280;62414;53.436;8.828;2022-07-29T05:36:52;101818.53;;;15.06
74060;BMP280;62414;53.436;8.828;2022-07-29T05:39:19;101812.00;;;15.03
74060;BMP280;62414;53.436;8.828;2022-07-29T05:41:45;101813.41;;;15.20
74060;BMP280;62414;53.436;8.828;2022-07-29T05:44:10;101813.72;;;15.10
74060;BMP280;62414;53.436;8.828;2022-07-29T05:46:36;101804.22;;;15.27
74060;BMP280;62414;53.436;8.828;2022-07-29T05:49:01;101803.69;;;15.32
74060;BMP280;62414;53.436;8.828;2022-07-29T05:51:27;101802.59;;;15.30
74060;BMP280;62414;53.436;8.828;2022-07-29T05:53:52;101803.78;;;15.29
74060;BMP280;62414;53.436;8.828;2022-07-29T05:56:19;101804.75;;;15.47
74060;BMP280;62414;53.436;8.828;2022-07-29T05:58:44;101815.69;;;15.35
74060;BMP280;62414;53.436;8.828;2022-07-29T06:01:10;101819.47;;;15.50
74060;BMP280;62414;53.436;8.828;2022-07-29T06:03:35;101816.72;;;15.63
74060;BMP280;62414;53.436;8.828;2022-07-29T06:06:01;101811.50;;;15.56
74060;BMP280;62414;53.436;8.828;2022-07-29T06:08:26;101821.63;;;15.68
74060;BMP280;62414;53.436;8.828;2022-07-29T06:10:52;101818.13;;;15.67
74060;BMP280;62414;53.436;8.828;2022-07-29T06:13:18;101818.53;;;15.78
74060;BMP280;62414;53.436;8.828;2022-07-29T06:15:44;101809.91;;;15.80
74060;BMP280;62414;53.436;8.828;2022-07-29T06:18:09;101815.53;;;15.98
74060;BMP280;62414;53.436;8.828;2022-07-29T06:20:35;101809.16;;;16.01
74060;BMP280;62414;53.436;8.828;2022-07-29T06:23:01;101813.44;;;16.24
74060;BMP280;62414;53.436;8.828;2022-07-29T06:25:26;101815.91;;;16.31
74060;BMP280;62414;53.436;8.828;2022-07-29T06:27:52;101808.28;;;16.26
74060;BMP280;62414;53.436;8.828;2022-07-29T06:30:19;101807.56;;;16.57
74060;BMP280;62414;53.436;8.828;2022-07-29T06:32:44;101801.09;;;16.72
74060;BMP280;62414;53.436;8.828;2022-07-29T06:35:10;101811.91;;;16.85
74060;BMP280;62414;53.436;8.828;2022-07-29T06:37:35;101813.84;;;17.16
74060;BMP280;62414;53.436;8.828;2022-07-29T06:40:01;101809.59;;;17.24
74060;BMP280;62414;53.436;8.828;2022-07-29T06:42:26;101804.59;;;17.22
74060;BMP280;62414;53.436;8.828;2022-07-29T06:44:52;101807.34;;;17.31
74060;BMP280;62414;53.436;8.828;2022-07-29T06:47:18;101806.28;;;17.47
74060;BMP280;62414;53.436;8.828;2022-07-29T06:49:44;101810.56;;;17.66
74060;BMP280;62414;53.436;8.828;2022-07-29T06:52:09;101808.75;;;17.72
74060;BMP280;62414;53.436;8.828;2022-07-29T06:54:35;101806.59;;;17.86
74060;BMP280;62414;53.436;8.828;2022-07-29T06:57:00;101805.34;;;18.14
74060;BMP280;62414;53.436;8.828;2022-07-29T06:59:25;101809.63;;;18.15
74060;BMP280;62414;53.436;8.828;2022-07-29T07:01:51;101806.22;;;18.38
74060;BMP280;62414;53.436;8.828;2022-07-29T07:04:18;101815.94;;;18.40
74060;BMP280;62414;53.436;8.828;2022-07-29T07:06:43;101808.25;;;18.62
74060;BMP280;62414;53.436;8.828;2022-07-29T07:09:08;101810.22;;;18.61
74060;BMP280;62414;53.436;8.828;2022-07-29T07:11:34;101816.34;;;18.47
74060;BMP280;62414;53.436;8.828;2022-07-29T07:13:59;101822.63;;;18.48
74060;BMP280;62414;53.436;8.828;2022-07-29T07:16:25;101827.63;;;18.58
74060;BMP280;62414;53.436;8.828;2022-07-29T07:18:50;101824.53;;;18.65
74060;BMP280;62414;53.436;8.828;2022-07-29T07:21:17;101823.88;;;18.70
74060;BMP280;62414;53.436;8.828;2022-07-29T07:23:42;101825.31;;;18.90
74060;BMP280;62414;53.436;8.828;2022-07-29T07:26:08;101815.66;;;19.03
74060;BMP280;62414;53.436;8.828;2022-07-29T07:28:33;101823.94;;;18.94
74060;BMP280;62414;53.436;8.828;2022-07-29T07:30:59;101814.44;;;19.05
74060;BMP280;62414;53.436;8.828;2022-07-29T07:33:24;101808.91;;;19.14
74060;BMP280;62414;53.436;8.828;2022-07-29T07:35:49;101822.41;;;18.93
74060;BMP280;62414;53.436;8.828;2022-07-29T07:38:16;101822.44;;;19.17
74060;BMP280;62414;53.436;8.828;2022-07-29T07:40:42;101820.25;;;19.45
74060;BMP280;62414;53.436;8.828;2022-07-29T07:43:07;101814.03;;;19.59
74060;BMP280;62414;53.436;8.828;2022-07-29T07:45:33;101809.50;;;19.71
74060;BMP280;62414;53.436;8.828;2022-07-29T07:47:58;101822.09;;;19.78
74060;BMP280;62414;53.436;8.828;2022-07-29T07:50:24;101820.59;;;19.62
74060;BMP280;62414;53.436;8.828;2022-07-29T07:52:50;101813.03;;;19.72
74060;BMP280;62414;53.436;8.828;2022-07-29T07:55:18;101819.19;;;19.96
74060;BMP280;62414;53.436;8.828;2022-07-29T07:57:45;101821.47;;;19.97
74060;BMP280;62414;53.436;8.828;2022-07-29T08:00:11;101817.00;;;20.15
74060;BMP280;62414;53.436;8.828;2022-07-29T08:02:40;101820.44;;;20.24
74060;BMP280;62414;53.436;8.828;2022-07-29T08:05:06;101816.88;;;20.39
74060;BMP280;62414;53.436;8.828;2022-07-29T08:07:32;101809.91;;;20.23
74060;BMP280;62414;53.436;8.828;2022-07-29T08:09:58;101812.75;;;20.14
74060;BMP280;62414;53.436;8.828;2022-07-29T08:12:24;101808.66;;;20.24
74060;BMP280;62414;53.436;8.828;2022-07-29T08:14:50;101809.88;;;20.38
74060;BMP280;62414;53.436;8.828;2022-07-29T08:17:15;101808.38;;;20.37
74060;BMP280;62414;53.436;8.828;2022-07-29T08:19:41;101809.50;;;20.30
74060;BMP280;62414;53.436;8.828;2022-07-29T08:22:06;101810.03;;;20.49
74060;BMP280;62414;53.436;8.828;2022-07-29T08:24:32;101811.28;;;20.48
74060;BMP280;62414;53.436;8.828;2022-07-29T08:26:57;101806.44;;;20.78
74060;BMP280;62414;53.436;8.828;2022-07-29T08:29:24;101811.16;;;21.12
74060;BMP280;62414;53.436;8.828;2022-07-29T08:31:50;101804.16;;;21.63
74060;BMP280;62414;53.436;8.828;2022-07-29T08:34:15;101806.66;;;21.92
74060;BMP280;62414;53.436;8.828;2022-07-29T08:36:41;101808.59;;;21.81
74060;BMP280;62414;53.436;8.828;2022-07-29T08:39:06;101810.06;;;21.82
74060;BMP280;62414;53.436;8.828;2022-07-29T08:41:31;101802.66;;;21.88
74060;BMP280;62414;53.436;8.828;2022-07-29T08:43:57;101813.25;;;22.32
74060;BMP280;62414;53.436;8.828;2022-07-29T08:46:24;101811.84;;;22.48
74060;BMP280;62414;53.436;8.828;2022-07-29T08:48:49;101810.97;;;22.30
74060;BMP280;62414;53.436;8.828;2022-07-29T08:51:17;101812.19;;;22.29
74060;BMP280;62414;53.436;8.828;2022-07-29T08:53:44;101817.44;;;22.59
74060;BMP280;62414;53.436;8.828;2022-07-29T08:56:12;101810.44;;;22.69
74060;BMP280;62414;53.436;8.828;2022-07-29T08:58:37;101817.44;;;22.59
74060;BMP280;62414;53.436;8.828;2022-07-29T09:01:04;101813.91;;;22.21
74060;BMP280;62414;53.436;8.828;2022-07-29T09:03:31;101813.25;;;22.32
74060;BMP280;62414;53.436;8.828;2022-07-29T09:05:58;101816.03;;;22.37
74060;BMP280;62414;53.436;8.828;2022-07-29T09:08:23;101811.91;;;22.59
74060;BMP280;62414;53.436;8.828;2022-07-29T09:10:49;101810.28;;;22.89
74060;BMP280;62414;53.436;8.828;2022-07-29T09:13:15;101810.84;;;23.04
74060;BMP280;62414;53.436;8.828;2022-07-29T09:15:40;101814.59;;;23.01
74060;BMP280;62414;53.436;8.828;2022-07-29T09:18:06;101816.72;;;23.34
74060;BMP280;62414;53.436;8.828;2022-07-29T09:20:32;101808.16;;;23.38
74060;BMP280;62414;53.436;8.828;2022-07-29T09:23:07;101816.22;;;23.80
74060;BMP280;62414;53.436;8.828;2022-07-29T09:25:33;101803.63;;;23.57
74060;BMP280;62414;53.436;8.828;2022-07-29T09:28:05;101804.13;;;23.61
74060;BMP280;62414;53.436;8.828;2022-07-29T09:30:31;101806.38;;;23.91
74060;BMP280;62414;53.436;8.828;2022-07-29T09:32:58;101808.19;;;23.77
74060;BMP280;62414;53.436;8.828;2022-07-29T09:35:25;101805.38;;;23.94
74060;BMP280;62414;53.436;8.828;2022-07-29T09:37:52;101805.66;;;23.40
74060;BMP280;62414;53.436;8.828;2022-07-29T09:40:20;101807.16;;;23.41
74060;BMP280;62414;53.436;8.828;2022-07-29T09:42:46;101795.56;;;23.42
74060;BMP280;62414;53.436;8.828;2022-07-29T09:45:12;101801.38;;;23.50
74060;BMP280;62414;53.436;8.828;2022-07-29T09:47:44;101790.84;;;23.49
74060;BMP280;62414;53.436;8.828;2022-07-29T09:50:09;101795.09;;;23.72
74060;BMP280;62414;53.436;8.828;2022-07-29T09:52:45;101787.81;;;23.58
74060;BMP280;62414;53.436;8.828;2022-07-29T09:55:12;101792.13;;;23.53
74060;BMP280;62414;53.436;8.828;2022-07-29T09:57:38;101789.56;;;23.72
74060;BMP280;62414;53.436;8.828;2022-07-29T10:00:06;101784.03;;;24.11
74060;BMP280;62414;53.436;8.828;2022-07-29T10:02:39;101785.19;;;24.32
74060;BMP280;62414;53.436;8.828;2022-07-29T10:05:15;101783.28;;;24.68
74060;BMP280;62414;53.436;8.828;2022-07-29T10:07:45;101787.31;;;24.73
74060;BMP280;62414;53.436;8.828;2022-07-29T10:10:19;101789.28;;;24.26
74060;BMP280;62414;53.436;8.828;2022-07-29T10:12:55;101782.72;;;24.12
74060;BMP280;62414;53.436;8.828;2022-07-29T10:15:22;101780.25;;;24.77
74060;BMP280;62414;53.436;8.828;2022-07-29T10:17:48;101776.78;;;25.42
74060;BMP280;62414;53.436;8.828;2022-07-29T10:20:15;101783.28;;;25.75
74060;BMP280;62414;53.436;8.828;2022-07-29T10:22:41;101778.47;;;25.81
74060;BMP280;62414;53.436;8.828;2022-07-29T10:25:07;101776.31;;;25.92
74060;BMP280;62414;53.436;8.828;2022-07-29T10:27:35;101770.88;;;26.06
74060;BMP280;62414;53.436;8.828;2022-07-29T10:30:01;101775.91;;;26.07
74060;BMP280;62414;53.436;8.828;2022-07-29T10:32:34;101775.50;;;26.41
74060;BMP280;62414;53.436;8.828;2022-07-29T10:38:28;101765.56;;;26.45
74060;BMP280;62414;53.436;8.828;2022-07-29T10:41:03;101768.91;;;26.44
74060;BMP280;62414;53.436;8.828;2022-07-29T10:43:36;101771.34;;;26.10
74060;BMP280;62414;53.436;8.828;2022-07-29T10:46:03;101773.34;;;26.34
74060;BMP280;62414;53.436;8.828;2022-07-29T10:48:29;101765.53;;;26.51
74060;BMP280;62414;53.436;8.828;2022-07-29T10:50:56;101762.44;;;26.73
74060;BMP280;62414;53.436;8.828;2022-07-29T10:53:23;101760.91;;;26.91
74060;BMP280;62414;53.436;8.828;2022-07-29T10:55:49;101755.94;;;27.16
74060;BMP280;62414;53.436;8.828;2022-07-29T10:58:17;101761.16;;;27.06
74060;BMP280;62414;53.436;8.828;2022-07-29T11:00:44;101757.47;;;26.85
74060;BMP280;62414;53.436;8.828;2022-07-29T11:03:45;101761.56;;;26.46
74060;BMP280;62414;53.436;8.828;2022-07-29T11:06:11;101769.53;;;26.87
74060;BMP280;62414;53.436;8.828;2022-07-29T11:08:36;101759.22;;;27.01
74060;BMP280;62414;53.436;8.828;2022-07-29T11:11:35;101754.88;;;27.05
74060;BMP280;62414;53.436;8.828;2022-07-29T11:14:01;101769.59;;;27.00
74060;BMP280;62414;53.436;8.828;2022-07-29T11:17:00;101768.78;;;26.87
74060;BMP280;62414;53.436;8.828;2022-07-29T11:19:26;101758.53;;;27.14
74060;BMP280;62414;53.436;8.828;2022-07-29T11:21:51;101753.97;;;27.29
74060;BMP280;62414;53.436;8.828;2022-07-29T11:24:20;101751.00;;;27.27
74060;BMP280;62414;53.436;8.828;2022-07-29T11:26:45;101761.81;;;26.99
74060;BMP280;62414;53.436;8.828;2022-07-29T11:29:31;101753.56;;;27.52
74060;BMP280;62414;53.436;8.828;2022-07-29T11:32:09;101752.97;;;28.32
74060;BMP280;62414;53.436;8.828;2022-07-29T11:34:35;101752.25;;;28.52
74060;BMP280;62414;53.436;8.828;2022-07-29T11:37:22;101756.47;;;27.99
74060;BMP280;62414;53.436;8.828;2022-07-29T11:40:14;101761.28;;;27.72
74060;BMP280;62414;53.436;8.828;2022-07-29T11:42:41;101757.94;;;27.47
74060;BMP280;62414;53.436;8.828;2022-07-29T11:45:08;101755.09;;;27.08
74060;BMP280;62414;53.436;8.828;2022-07-29T11:47:36;101751.56;;;27.07
74060;BMP280;62414;53.436;8.828;2022-07-29T11:50:04;101749.59;;;27.34
74060;BMP280;62414;53.436;8.828;2022-07-29T11:52:32;101742.44;;;27.91
74060;BMP280;62414;53.436;8.828;2022-07-29T11:55:01;101737.47;;;28.10
74060;BMP280;62414;53.436;8.828;2022-07-29T11:57:28;101728.88;;;28.35
74060;BMP280;62414;53.436;8.828;2022-07-29T11:59:53;101739.78;;;27.99
74060;BMP280;62414;53.436;8.828;2022-07-29T12:02:20;101731.53;;;27.67
74060;BMP280;62414;53.436;8.828;2022-07-29T12:04:50;101744.00;;;28.26
74060;BMP280;62414;53.436;8.828;2022-07-29T12:07:16;101738.22;;;28.58
74060;BMP280;62414;53.436;8.828;2022-07-29T12:09:49;101731.69;;;28.76
74060;BMP280;62414;53.436;8.828;2022-07-29T12:12:15;101741.00;;;28.58
74060;BMP280;62414;53.436;8.828;2022-07-29T12:14:41;101739.66;;;27.78
74060;BMP280;62414;53.436;8.828;2022-07-29T12:17:06;101730.84;;;28.00
74060;BMP280;62414;53.436;8.828;2022-07-29T12:19:41;101725.97;;;27.80
74060;BMP280;62414;53.436;8.828;2022-07-29T12:22:08;101737.00;;;27.46
74060;BMP280;62414;53.436;8.828;2022-07-29T12:24:42;101729.56;;;28.14
74060;BMP280;62414;53.436;8.828;2022-07-29T12:27:08;101734.56;;;28.29
74060;BMP280;62414;53.436;8.828;2022-07-29T12:29:33;101738.78;;;28.77
74060;BMP280;62414;53.436;8.828;2022-07-29T12:31:59;101731.13;;;29.19
74060;BMP280;62414;53.436;8.828;2022-07-29T12:34:26;101737.03;;;29.16
74060;BMP280;62414;53.436;8.828;2022-07-29T12:36:52;101744.19;;;29.53
74060;BMP280;62414;53.436;8.828;2022-07-29T12:39:19;101733.16;;;29.19
74060;BMP280;62414;53.436;8.828;2022-07-29T12:41:45;101738.28;;;29.36
74060;BMP280;62414;53.436;8.828;2022-07-29T12:44:11;101735.44;;;29.00
74060;BMP280;62414;53.436;8.828;2022-07-29T12:46:37;101727.47;;;28.62
74060;BMP280;62414;53.436;8.828;2022-07-29T12:49:02;101733.38;;;28.79
74060;BMP280;62414;53.436;8.828;2022-07-29T12:51:28;101728.41;;;29.06
74060;BMP280;62414;53.436;8.828;2022-07-29T12:54:02;101724.34;;;28.45
74060;BMP280;62414;53.436;8.828;2022-07-29T12:56:29;101727.88;;;27.98
74060;BMP280;62414;53.436;8.828;2022-07-29T12:58:55;101728.22;;;28.29
74060;BMP280;62414;53.436;8.828;2022-07-29T13:01:20;101724.88;;;27.96
74060;BMP280;62414;53.436;8.828;2022-07-29T13:03:51;101724.88;;;27.96
74060;BMP280;62414;53.436;8.828;2022-07-29T13:06:35;101721.00;;;28.46
74060;BMP280;62414;53.436;8.828;2022-07-29T13:09:06;101709.19;;;28.19
74060;BMP280;62414;53.436;8.828;2022-07-29T13:11:35;101712.78;;;27.94
74060;BMP280;62414;53.436;8.828;2022-07-29T13:14:00;101713.13;;;27.90
74060;BMP280;62414;53.436;8.828;2022-07-29T13:16:26;101710.56;;;28.60
74060;BMP280;62414;53.436;8.828;2022-07-29T13:19:04;101707.78;;;28.60
74060;BMP280;62414;53.436;8.828;2022-07-29T13:21:29;101708.59;;;28.68
74060;BMP280;62414;53.436;8.828;2022-07-29T13:23:55;101711.16;;;28.66
74060;BMP280;62414;53.436;8.828;2022-07-29T13:26:20;101721.59;;;29.15
74060;BMP280;62414;53.436;8.828;2022-07-29T13:28:47;101720.53;;;29.54
74060;BMP280;62414;53.436;8.828;2022-07-29T13:31:13;101720.59;;;30.20
74060;BMP280;62414;53.436;8.828;2022-07-29T13:33:38;101715.41;;;32.03
74060;BMP280;62414;53.436;8.828;2022-07-29T13:36:04;101703.94;;;32.41
74060;BMP280;62414;53.436;8.828;2022-07-29T13:38:29;101697.31;;;32.04
74060;BMP280;62414;53.436;8.828;2022-07-29T13:40:54;101698.94;;;31.42
74060;BMP280;62414;53.436;8.828;2022-07-29T13:43:20;101706.00;;;33.00
74060;BMP280;62414;53.436;8.828;2022-07-29T13:45:47;101706.16;;;33.90
74060;BMP280;62414;53.436;8.828;2022-07-29T13:48:12;101696.63;;;34.77
74060;BMP280;62414;53.436;8.828;2022-07-29T13:50:38;101686.97;;;35.09
74060;BMP280;62414;53.436;8.828;2022-07-29T13:53:03;101690.22;;;33.65
74060;BMP280;62414;53.436;8.828;2022-07-29T13:55:29;101695.31;;;32.46
74060;BMP280;62414;53.436;8.828;2022-07-29T13:57:54;101703.53;;;30.69
74060;BMP280;62414;53.436;8.828;2022-07-29T14:00:19;101690.78;;;30.00
74060;BMP280;62414;53.436;8.828;2022-07-29T14:02:46;101704.03;;;30.22